Time;durP1;ratioP1;P1;durP2;ratioP2;P2;SDS_P1;SDS_P2;PMS_P1;PMS_P2;Temp;Humidity;BMP_temperature;BMP_pressure;BME280_temperature;BME280_humidity;BME280_pressure;Samples;Min_cycle;Max_cycle;Signal;HPM_P1;HPM_P2
2022/08/23 00:01:34;;;;;;;;;;;21.20;49.70;;;;;;484283;246;1193;-74
2022/08/23 00:03:35;;;;;;;;;;;21.30;49.60;;;;;;484284;246;1303;-74
2022/08/23 00:05:37;;;;;;;;;;;21.40;49.60;;;;;;484323;246;1119;-74
2022/08/23 00:07:38;;;;;;;;;;;21.50;49.40;;;;;;484315;246;1121;-74
2022/08/23 00:09:39;;;;;;;;;;;21.40;49.40;;;;;;484297;246;1199;-74
2022/08/23 00:11:41;;;;;;;;;;;21.40;49.40;;;;;;484325;246;1186;-74
2022/08/23 00:13:42;;;;;;;;;;;21.50;49.20;;;;;;484384;246;1128;-74
2022/08/23 00:15:43;;;;;;;;;;;21.50;49.20;;;;;;484278;246;1222;-74
2022/08/23 00:17:45;;;;;;;;;;;21.50;49.30;;;;;;484484;246;2140;-74
2022/08/23 00:19:46;;;;;;;;;;;21.40;49.20;;;;;;484364;246;1130;-74
2022/08/23 00:21:48;;;;;;;;;;;21.40;49.50;;;;;;484313;246;1302;-74
2022/08/23 00:23:49;;;;;;;;;;;21.30;49.60;;;;;;484239;246;1165;-74
2022/08/23 00:25:50;;;;;;;;;;;21.40;49.40;;;;;;484262;246;1230;-74
2022/08/23 00:27:51;;;;;;;;;;;21.40;49.40;;;;;;484279;246;1198;-74
2022/08/23 00:29:53;;;;;;;;;;;21.30;49.70;;;;;;484208;246;1365;-74
2022/08/23 00:31:54;;;;;;;;;;;21.30;49.70;;;;;;484290;245;1184;-74
2022/08/23 00:33:56;;;;;;;;;;;21.30;49.50;;;;;;484205;246;1154;-74
2022/08/23 00:35:57;;;;;;;;;;;21.30;49.50;;;;;;484283;246;1222;-74
2022/08/23 00:37:59;;;;;;;;;;;21.30;49.60;;;;;;484202;246;2168;-74
2022/08/23 00:40:00;;;;;;;;;;;21.40;49.50;;;;;;484212;246;1336;-74
2022/08/23 00:42:01;;;;;;;;;;;21.40;49.40;;;;;;484383;246;1349;-74
2022/08/23 00:48:42;;;;;;;;;;;21.40;49.50;;;;;;468551;246;1274;-74
2022/08/23 00:50:44;;;;;;;;;;;21.50;49.40;;;;;;484294;246;1092;-74
2022/08/23 00:52:46;;;;;;;;;;;21.50;49.20;;;;;;484330;246;1111;-74
2022/08/23 00:54:46;;;;;;;;;;;21.60;49.00;;;;;;484388;246;1012;-74
2022/08/23 00:56:48;;;;;;;;;;;21.60;48.90;;;;;;484293;246;1020;-74
2022/08/23 00:58:49;;;;;;;;;;;21.50;49.00;;;;;;484382;246;2160;-74
2022/08/23 01:00:50;;;;;;;;;;;21.50;49.20;;;;;;484484;246;1082;-74
2022/08/23 01:02:52;;;;;;;;;;;21.60;49.00;;;;;;484347;246;1270;-74
2022/08/23 01:04:53;;;;;;;;;;;21.60;48.80;;;;;;484263;246;1168;-74
2022/08/23 01:06:55;;;;;;;;;;;21.50;49.00;;;;;;484292;246;1209;-74
2022/08/23 01:08:56;;;;;;;;;;;21.50;49.20;;;;;;484332;246;1257;-75
2022/08/23 01:10:58;;;;;;;;;;;21.50;49.30;;;;;;484374;246;1282;-74
2022/08/23 01:12:59;;;;;;;;;;;21.60;49.10;;;;;;484397;246;1365;-74
2022/08/23 01:15:00;;;;;;;;;;;21.50;49.00;;;;;;484273;246;1115;-74
2022/08/23 01:17:02;;;;;;;;;;;21.60;49.00;;;;;;484413;246;1150;-74
2022/08/23 01:19:04;;;;;;;;;;;21.60;49.00;;;;;;484261;246;2195;-74
2022/08/23 01:21:05;;;;;;;;;;;21.70;49.00;;;;;;484296;246;1135;-74
2022/08/23 01:23:06;;;;;;;;;;;21.80;48.50;;;;;;484318;246;1093;-74
2022/08/23 01:25:08;;;;;;;;;;;21.70;48.70;;;;;;484273;246;1346;-74
2022/08/23 01:27:10;;;;;;;;;;;21.50;48.80;;;;;;484270;246;1066;-74
2022/08/23 01:29:11;;;;;;;;;;;21.40;49.10;;;;;;484347;246;1155;-74
2022/08/23 01:31:12;;;;;;;;;;;21.30;49.30;;;;;;484399;246;1146;-74
2022/08/23 01:33:14;;;;;;;;;;;21.20;49.50;;;;;;484317;242;1090;-74
2022/08/23 01:35:16;;;;;;;;;;;21.20;49.70;;;;;;484424;246;1111;-74
2022/08/23 01:37:17;;;;;;;;;;;21.10;49.90;;;;;;484293;246;1297;-74
2022/08/23 01:39:18;;;;;;;;;;;21.00;50.20;;;;;;484285;246;2180;-74
2022/08/23 01:41:20;;;;;;;;;;;20.90;50.20;;;;;;484332;246;1121;-74
2022/08/23 01:43:21;;;;;;;;;;;20.90;50.30;;;;;;484296;246;1149;-74
2022/08/23 01:45:22;;;;;;;;;;;20.90;50.40;;;;;;484280;246;1216;-74
2022/08/23 01:47:24;;;;;;;;;;;20.70;50.70;;;;;;484334;246;1126;-74
2022/08/23 01:49:25;;;;;;;;;;;20.80;50.70;;;;;;484547;246;1014;-74
2022/08/23 01:51:26;;;;;;;;;;;20.80;50.70;;;;;;484300;246;1092;-74
2022/08/23 01:53:28;;;;;;;;;;;20.70;50.60;;;;;;484413;242;1085;-74
2022/08/23 01:55:29;;;;;;;;;;;20.70;50.80;;;;;;484539;246;1095;-74
2022/08/23 01:57:31;;;;;;;;;;;20.60;51.00;;;;;;484468;246;1132;-74
2022/08/23 01:59:32;;;;;;;;;;;20.60;50.90;;;;;;484399;246;2153;-74
2022/08/23 02:01:33;;;;;;;;;;;20.60;51.10;;;;;;484293;246;1038;-74
2022/08/23 02:03:36;;;;;;;;;;;20.60;51.10;;;;;;484567;246;1306;-74
2022/08/23 02:05:36;;;;;;;;;;;20.60;51.00;;;;;;483947;246;1465;-74
2022/08/23 02:07:37;;;;;;;;;;;20.70;51.00;;;;;;484685;246;1441;-74
2022/08/23 02:09:39;;;;;;;;;;;20.80;50.80;;;;;;484247;246;1185;-74
2022/08/23 02:11:40;;;;;;;;;;;20.80;50.60;;;;;;484743;246;1240;-74
2022/08/23 02:13:41;;;;;;;;;;;20.90;50.40;;;;;;484445;242;1211;-74
2022/08/23 02:15:43;;;;;;;;;;;20.80;50.50;;;;;;484281;246;1235;-74
2022/08/23 02:17:45;;;;;;;;;;;20.80;50.50;;;;;;484212;246;1098;-74
2022/08/23 02:19:46;;;;;;;;;;;20.90;50.50;;;;;;484312;246;2168;-75
2022/08/23 02:21:47;;;;;;;;;;;21.00;50.40;;;;;;484478;246;1117;-74
2022/08/23 02:23:50;;;;;;;;;;;20.90;50.30;;;;;;484248;246;1210;-74
2022/08/23 02:25:50;;;;;;;;;;;21.00;50.30;;;;;;484320;246;1397;-74
2022/08/23 02:27:52;;;;;;;;;;;20.90;50.20;;;;;;484306;246;1146;-74
2022/08/23 02:29:53;;;;;;;;;;;20.90;50.20;;;;;;484341;246;1106;-74
2022/08/23 02:31:55;;;;;;;;;;;20.90;50.40;;;;;;484369;246;1211;-75
2022/08/23 02:33:56;;;;;;;;;;;20.90;50.30;;;;;;484293;246;1082;-74
2022/08/23 02:35:57;;;;;;;;;;;21.00;50.30;;;;;;484296;246;1125;-74
2022/08/23 02:37:59;;;;;;;;;;;21.00;50.20;;;;;;484462;246;1132;-74
2022/08/23 02:40:00;;;;;;;;;;;21.00;50.20;;;;;;484279;246;2196;-74
2022/08/23 02:42:01;;;;;;;;;;;21.00;50.20;;;;;;484378;246;1227;-74
2022/08/23 02:44:03;;;;;;;;;;;21.00;50.10;;;;;;484486;242;1173;-74
2022/08/23 02:46:05;;;;;;;;;;;21.00;50.20;;;;;;484296;246;1215;-74
2022/08/23 02:48:06;;;;;;;;;;;21.00;50.20;;;;;;484459;246;1447;-74
2022/08/23 02:50:07;;;;;;;;;;;21.00;50.20;;;;;;484400;246;1510;-74
2022/08/23 02:52:08;;;;;;;;;;;20.90;50.30;;;;;;484416;245;1150;-74
2022/08/23 02:54:09;;;;;;;;;;;20.80;50.50;;;;;;484299;246;1135;-74
2022/08/23 02:56:11;;;;;;;;;;;20.80;50.50;;;;;;484348;246;1272;-74
2022/08/23 02:58:12;;;;;;;;;;;20.80;50.60;;;;;;484336;242;1305;-74
2022/08/23 03:00:13;;;;;;;;;;;20.80;50.50;;;;;;484294;246;2168;-74
2022/08/23 03:02:15;;;;;;;;;;;20.80;50.70;;;;;;484310;242;1175;-74
2022/08/23 03:04:16;;;;;;;;;;;20.90;50.50;;;;;;484323;246;1302;-74
2022/08/23 03:06:17;;;;;;;;;;;21.00;50.20;;;;;;484318;246;1141;-74
2022/08/23 03:08:19;;;;;;;;;;;21.20;49.90;;;;;;484346;246;1135;-74
2022/08/23 03:10:21;;;;;;;;;;;21.30;49.70;;;;;;484304;246;1127;-74
2022/08/23 03:12:22;;;;;;;;;;;21.30;49.30;;;;;;484322;246;1352;-74
2022/08/23 03:14:24;;;;;;;;;;;21.30;49.30;;;;;;484239;246;1157;-74
2022/08/23 03:16:24;;;;;;;;;;;21.40;49.30;;;;;;484260;246;1382;-74
2022/08/23 03:18:26;;;;;;;;;;;21.40;49.10;;;;;;484297;246;1202;-74
2022/08/23 03:20:27;;;;;;;;;;;21.40;49.00;;;;;;484372;246;2195;-74
2022/08/23 03:22:29;;;;;;;;;;;21.40;49.00;;;;;;484274;246;1154;-74
2022/08/23 03:24:30;;;;;;;;;;;21.50;48.90;;;;;;484264;246;1176;-74
2022/08/23 03:26:31;;;;;;;;;;;21.50;48.70;;;;;;484366;246;1099;-74
2022/08/23 03:28:33;;;;;;;;;;;21.50;48.70;;;;;;484501;246;1108;-74
2022/08/23 03:30:34;;;;;;;;;;;21.50;48.90;;;;;;484314;246;1302;-74
2022/08/23 03:32:35;;;;;;;;;;;21.50;48.80;;;;;;484353;246;1135;-74
2022/08/23 03:34:37;;;;;;;;;;;21.50;48.80;;;;;;484651;246;1126;-74
2022/08/23 03:36:38;;;;;;;;;;;21.50;48.70;;;;;;484346;246;1260;-74
2022/08/23 03:38:39;;;;;;;;;;;21.50;48.60;;;;;;484331;246;1111;-74
2022/08/23 03:40:41;;;;;;;;;;;21.50;48.50;;;;;;484260;246;2124;-74
2022/08/23 03:42:42;;;;;;;;;;;21.60;48.60;;;;;;484302;246;1187;-74
2022/08/23 03:44:43;;;;;;;;;;;21.60;48.60;;;;;;484478;246;1149;-74
2022/08/23 03:46:45;;;;;;;;;;;21.60;48.40;;;;;;484314;246;1368;-74
2022/08/23 03:48:46;;;;;;;;;;;21.60;48.50;;;;;;484565;246;1190;-74
2022/08/23 03:50:47;;;;;;;;;;;21.50;48.50;;;;;;484493;246;1146;-74
2022/08/23 03:52:49;;;;;;;;;;;21.50;48.40;;;;;;484298;246;1185;-74
2022/08/23 03:54:50;;;;;;;;;;;21.40;48.60;;;;;;484380;246;1230;-74
2022/08/23 03:56:51;;;;;;;;;;;21.40;48.60;;;;;;484424;246;1178;-74
2022/08/23 03:58:53;;;;;;;;;;;21.40;48.70;;;;;;484267;246;1193;-74
2022/08/23 04:00:54;;;;;;;;;;;21.50;48.60;;;;;;484459;246;2121;-74
2022/08/23 04:02:55;;;;;;;;;;;21.50;48.50;;;;;;484149;246;1126;-74
2022/08/23 04:04:57;;;;;;;;;;;21.50;48.40;;;;;;484242;246;1201;-74
2022/08/23 04:06:58;;;;;;;;;;;21.50;48.30;;;;;;484393;246;1118;-74
2022/08/23 04:08:59;;;;;;;;;;;21.50;48.40;;;;;;484315;246;1163;-74
2022/08/23 04:11:01;;;;;;;;;;;21.50;48.50;;;;;;484263;246;1226;-74
2022/08/23 04:13:02;;;;;;;;;;;21.60;48.40;;;;;;484337;246;1181;-74
2022/08/23 04:15:03;;;;;;;;;;;21.60;48.30;;;;;;484420;246;1327;-74
2022/08/23 04:17:05;;;;;;;;;;;21.50;48.30;;;;;;484278;246;1163;-75
2022/08/23 04:19:06;;;;;;;;;;;21.40;48.40;;;;;;484343;246;1193;-74
2022/08/23 04:21:08;;;;;;;;;;;21.50;48.60;;;;;;484234;246;2160;-74
2022/08/23 04:23:09;;;;;;;;;;;21.30;48.70;;;;;;484352;246;1115;-74
2022/08/23 04:25:11;;;;;;;;;;;21.40;48.60;;;;;;484228;246;1083;-74
2022/08/23 04:27:13;;;;;;;;;;;21.50;48.50;;;;;;484529;246;1101;-74
2022/08/23 04:29:15;;;;;;;;;;;21.50;48.50;;;;;;484277;246;1068;-74
2022/08/23 04:31:15;;;;;;;;;;;21.50;48.50;;;;;;484172;246;1440;-74
2022/08/23 04:33:16;;;;;;;;;;;21.40;48.50;;;;;;484496;246;1104;-74
2022/08/23 04:35:18;;;;;;;;;;;21.60;48.30;;;;;;484276;246;1124;-74
2022/08/23 04:37:19;;;;;;;;;;;21.60;48.20;;;;;;484425;246;1135;-74
2022/08/23 04:39:20;;;;;;;;;;;21.60;48.10;;;;;;484370;246;2152;-74
2022/08/23 04:43:42;;;;;;;;;;;21.70;48.10;;;;;;484278;246;1009;-74
2022/08/23 04:45:43;;;;;;;;;;;21.70;48.00;;;;;;484225;246;1416;-74
2022/08/23 04:47:44;;;;;;;;;;;21.80;47.90;;;;;;484278;246;1304;-74
2022/08/23 04:49:45;;;;;;;;;;;21.80;47.70;;;;;;484395;246;1302;-74
2022/08/23 04:51:47;;;;;;;;;;;21.70;48.00;;;;;;484338;246;1201;-74
2022/08/23 04:53:48;;;;;;;;;;;21.70;48.10;;;;;;484295;246;1118;-74
2022/08/23 04:55:51;;;;;;;;;;;21.70;48.10;;;;;;484203;242;1117;-74
2022/08/23 04:57:51;;;;;;;;;;;21.70;48.00;;;;;;484142;246;1430;-74
2022/08/23 04:59:52;;;;;;;;;;;21.70;48.00;;;;;;484251;246;2175;-74
2022/08/23 05:01:54;;;;;;;;;;;21.70;48.10;;;;;;484257;246;1266;-74
2022/08/23 05:03:55;;;;;;;;;;;21.70;48.00;;;;;;484126;246;1094;-74
2022/08/23 05:05:56;;;;;;;;;;;21.70;47.90;;;;;;484159;246;1150;-74
2022/08/23 05:07:58;;;;;;;;;;;21.70;48.00;;;;;;484348;246;1294;-74
2022/08/23 05:09:59;;;;;;;;;;;21.70;48.00;;;;;;484183;246;1439;-74
2022/08/23 05:12:00;;;;;;;;;;;21.70;48.00;;;;;;484282;246;1170;-74
2022/08/23 05:14:01;;;;;;;;;;;21.70;48.00;;;;;;484192;246;1119;-74
2022/08/23 05:16:03;;;;;;;;;;;21.70;47.90;;;;;;484416;246;1202;-74
2022/08/23 05:18:04;;;;;;;;;;;21.70;48.00;;;;;;484195;245;1232;-74
2022/08/23 05:20:05;;;;;;;;;;;21.70;48.00;;;;;;484201;246;2204;-74
2022/08/23 05:22:07;;;;;;;;;;;21.70;48.00;;;;;;484376;246;1130;-74
2022/08/23 05:24:08;;;;;;;;;;;21.90;47.80;;;;;;484250;246;1136;-74
2022/08/23 05:26:10;;;;;;;;;;;21.90;47.50;;;;;;484331;246;1181;-74
2022/08/23 05:28:11;;;;;;;;;;;21.90;47.70;;;;;;484062;246;1231;-74
2022/08/23 05:30:12;;;;;;;;;;;21.90;47.60;;;;;;484393;246;1193;-74
2022/08/23 05:32:13;;;;;;;;;;;21.90;47.60;;;;;;484256;246;1108;-74
2022/08/23 05:34:15;;;;;;;;;;;22.00;47.50;;;;;;484450;246;1273;-75
2022/08/23 05:36:16;;;;;;;;;;;21.90;47.60;;;;;;484262;246;1131;-74
2022/08/23 05:38:17;;;;;;;;;;;21.90;47.70;;;;;;484245;246;1123;-74
2022/08/23 05:40:18;;;;;;;;;;;21.90;47.60;;;;;;484197;246;2161;-74
2022/08/23 05:42:20;;;;;;;;;;;21.80;47.80;;;;;;484213;246;1207;-74
2022/08/23 05:44:21;;;;;;;;;;;21.70;48.10;;;;;;484445;246;1135;-74
2022/08/23 05:46:23;;;;;;;;;;;21.70;48.20;;;;;;484390;246;1338;-74
2022/08/23 05:48:24;;;;;;;;;;;21.70;48.30;;;;;;484350;246;1102;-74
2022/08/23 05:50:25;;;;;;;;;;;21.70;48.20;;;;;;484329;245;1165;-74
2022/08/23 05:52:26;;;;;;;;;;;21.80;48.20;;;;;;484535;246;1165;-74
2022/08/23 05:54:28;;;;;;;;;;;21.80;48.10;;;;;;484168;246;1177;-74
2022/08/23 05:56:29;;;;;;;;;;;21.80;48.10;;;;;;484235;246;1180;-74
2022/08/23 05:58:30;;;;;;;;;;;21.80;48.20;;;;;;484309;245;1135;-74
2022/08/23 06:00:32;;;;;;;;;;;21.80;48.20;;;;;;484236;246;2196;-74
2022/08/23 06:02:33;;;;;;;;;;;21.80;48.20;;;;;;484224;246;1394;-74
2022/08/23 06:04:35;;;;;;;;;;;21.70;48.30;;;;;;484256;246;1193;-74
2022/08/23 06:06:36;;;;;;;;;;;21.70;48.40;;;;;;484200;246;1178;-74
2022/08/23 06:08:38;;;;;;;;;;;21.80;48.30;;;;;;484184;246;1198;-74
2022/08/23 06:10:39;;;;;;;;;;;21.80;48.20;;;;;;484296;246;1588;-74
2022/08/23 06:12:41;;;;;;;;;;;21.80;48.30;;;;;;484251;246;1144;-74
2022/08/23 06:14:42;;;;;;;;;;;21.80;48.30;;;;;;484255;245;1137;-74
2022/08/23 06:16:43;;;;;;;;;;;21.80;48.50;;;;;;484390;246;1234;-74
2022/08/23 06:18:44;;;;;;;;;;;21.80;48.40;;;;;;484056;246;1181;-74
2022/08/23 06:20:46;;;;;;;;;;;21.90;48.30;;;;;;484238;246;2163;-74
2022/08/23 06:22:47;;;;;;;;;;;21.80;48.30;;;;;;484185;246;1171;-74
2022/08/23 06:24:48;;;;;;;;;;;21.90;48.30;;;;;;484297;246;1235;-74
2022/08/23 06:26:50;;;;;;;;;;;22.00;48.00;;;;;;484226;246;1097;-74
2022/08/23 06:28:51;;;;;;;;;;;21.90;48.10;;;;;;484221;246;1212;-74
2022/08/23 06:30:52;;;;;;;;;;;21.90;48.20;;;;;;484186;246;1150;-74
2022/08/23 06:32:54;;;;;;;;;;;21.90;48.30;;;;;;484185;245;1154;-74
2022/08/23 06:34:55;;;;;;;;;;;21.90;48.30;;;;;;484254;246;1127;-74
2022/08/23 06:36:56;;;;;;;;;;;21.70;48.50;;;;;;484060;246;1158;-74
2022/08/23 06:38:58;;;;;;;;;;;21.70;48.50;;;;;;484217;246;1073;-74
2022/08/23 06:40:59;;;;;;;;;;;21.70;48.60;;;;;;484167;246;2191;-74
2022/08/23 06:43:00;;;;;;;;;;;21.70;48.60;;;;;;484068;246;1150;-74
2022/08/23 06:45:01;;;;;;;;;;;21.70;48.70;;;;;;484134;246;1095;-74
2022/08/23 06:47:03;;;;;;;;;;;21.80;48.70;;;;;;483877;246;1160;-74
2022/08/23 06:49:04;;;;;;;;;;;21.80;48.70;;;;;;483678;246;1080;-74
2022/08/23 06:51:06;;;;;;;;;;;21.80;48.60;;;;;;484088;246;1186;-74
2022/08/23 06:53:07;;;;;;;;;;;21.80;48.60;;;;;;484318;246;1357;-74
2022/08/23 06:55:08;;;;;;;;;;;21.80;48.80;;;;;;484145;246;1242;-74
2022/08/23 06:57:09;;;;;;;;;;;21.80;48.60;;;;;;483671;246;1427;-75
2022/08/23 06:59:11;;;;;;;;;;;21.90;48.70;;;;;;484010;246;1304;-74
2022/08/23 07:01:12;;;;;;;;;;;21.90;48.80;;;;;;484089;245;2167;-74
2022/08/23 07:03:14;;;;;;;;;;;21.80;48.80;;;;;;484099;246;1373;-74
2022/08/23 07:05:15;;;;;;;;;;;21.70;49.10;;;;;;483839;246;1161;-74
2022/08/23 07:07:17;;;;;;;;;;;21.80;49.10;;;;;;484064;246;1155;-74
2022/08/23 07:09:18;;;;;;;;;;;21.90;48.90;;;;;;484017;246;1798;-74
2022/08/23 07:11:19;;;;;;;;;;;21.90;49.00;;;;;;484256;246;1133;-74
2022/08/23 07:13:21;;;;;;;;;;;22.00;48.90;;;;;;484151;246;1093;-74
2022/08/23 07:15:22;;;;;;;;;;;22.00;48.90;;;;;;484111;246;1381;-74
2022/08/23 07:17:24;;;;;;;;;;;21.90;49.00;;;;;;483960;246;1066;-74
2022/08/23 07:19:26;;;;;;;;;;;21.80;49.10;;;;;;484040;246;1175;-75
2022/08/23 07:21:26;;;;;;;;;;;21.90;49.20;;;;;;484008;246;2168;-74
2022/08/23 07:23:27;;;;;;;;;;;21.80;49.30;;;;;;484132;245;1061;-74
2022/08/23 07:25:29;;;;;;;;;;;21.80;49.30;;;;;;484068;246;1509;-74
2022/08/23 07:27:30;;;;;;;;;;;21.90;49.30;;;;;;483843;246;1108;-74
2022/08/23 07:29:32;;;;;;;;;;;22.00;49.10;;;;;;483998;246;1056;-74
2022/08/23 07:31:33;;;;;;;;;;;22.00;49.20;;;;;;484044;246;1091;-74
2022/08/23 07:33:35;;;;;;;;;;;22.00;49.20;;;;;;484040;246;1710;-74
2022/08/23 07:35:36;;;;;;;;;;;22.00;49.20;;;;;;484019;246;1061;-74
2022/08/23 07:37:37;;;;;;;;;;;22.10;49.10;;;;;;483990;246;1233;-74
2022/08/23 07:39:39;;;;;;;;;;;22.10;49.00;;;;;;484051;246;1105;-74
2022/08/23 07:41:40;;;;;;;;;;;22.10;49.10;;;;;;484108;246;2192;-74
2022/08/23 07:43:41;;;;;;;;;;;22.10;49.00;;;;;;483947;246;1093;-74
2022/08/23 07:45:43;;;;;;;;;;;22.20;49.00;;;;;;483939;246;1125;-74
2022/08/23 07:47:44;;;;;;;;;;;22.10;49.00;;;;;;484058;245;1328;-74
2022/08/23 07:49:46;;;;;;;;;;;22.10;49.10;;;;;;483967;246;1112;-74
2022/08/23 07:51:47;;;;;;;;;;;22.00;49.30;;;;;;483951;246;1231;-74
2022/08/23 07:53:49;;;;;;;;;;;22.10;49.20;;;;;;483804;246;1182;-74
2022/08/23 07:55:50;;;;;;;;;;;22.10;49.10;;;;;;484024;246;1091;-74
2022/08/23 07:57:51;;;;;;;;;;;22.00;49.40;;;;;;484053;246;1208;-74
2022/08/23 07:59:53;;;;;;;;;;;22.10;49.40;;;;;;484054;246;1181;-74
2022/08/23 08:01:54;;;;;;;;;;;22.00;49.30;;;;;;484061;246;2156;-74
2022/08/23 08:03:55;;;;;;;;;;;22.00;49.60;;;;;;484023;246;1068;-74
2022/08/23 08:05:58;;;;;;;;;;;22.00;49.60;;;;;;484125;246;1101;-74
2022/08/23 08:07:58;;;;;;;;;;;22.00;49.60;;;;;;483900;246;1362;-74
2022/08/23 08:10:00;;;;;;;;;;;22.10;49.60;;;;;;484077;246;1097;-74
2022/08/23 08:12:01;;;;;;;;;;;22.10;49.40;;;;;;484041;246;1196;-74
2022/08/23 08:14:02;;;;;;;;;;;22.10;49.40;;;;;;483995;246;1082;-74
2022/08/23 08:16:03;;;;;;;;;;;22.00;49.70;;;;;;484103;246;1260;-74
2022/08/23 08:18:05;;;;;;;;;;;21.90;49.90;;;;;;484022;246;1107;-74
2022/08/23 08:20:06;;;;;;;;;;;22.00;50.00;;;;;;484171;246;1074;-74
2022/08/23 08:22:07;;;;;;;;;;;22.00;49.90;;;;;;483900;246;2164;-74
2022/08/23 08:24:10;;;;;;;;;;;22.00;49.90;;;;;;484097;246;1092;-74
2022/08/23 08:26:10;;;;;;;;;;;21.90;50.00;;;;;;483894;246;1448;-74
2022/08/23 08:28:13;;;;;;;;;;;22.00;50.00;;;;;;483911;246;1100;-74
2022/08/23 08:30:13;;;;;;;;;;;22.00;50.00;;;;;;483951;246;1309;-75
2022/08/23 08:32:15;;;;;;;;;;;22.10;49.80;;;;;;483941;245;1238;-75
2022/08/23 08:34:16;;;;;;;;;;;22.00;49.70;;;;;;484004;246;1230;-74
2022/08/23 08:36:18;;;;;;;;;;;22.00;49.80;;;;;;483870;246;1162;-74
2022/08/23 08:38:19;;;;;;;;;;;22.00;49.60;;;;;;484137;246;1052;-74
2022/08/23 08:40:20;;;;;;;;;;;22.00;49.70;;;;;;484064;246;1094;-74
2022/08/23 08:42:22;;;;;;;;;;;22.00;49.70;;;;;;483906;242;2209;-74
2022/08/23 08:44:23;;;;;;;;;;;22.00;49.70;;;;;;484154;246;1126;-74
2022/08/23 08:46:24;;;;;;;;;;;22.00;49.60;;;;;;483956;246;1133;-74
2022/08/23 08:48:26;;;;;;;;;;;22.00;49.50;;;;;;483949;246;1036;-74
2022/08/23 08:50:27;;;;;;;;;;;22.00;49.60;;;;;;483992;246;1065;-74
2022/08/23 08:52:28;;;;;;;;;;;22.00;49.70;;;;;;484017;246;1097;-74
2022/08/23 08:54:30;;;;;;;;;;;22.00;49.80;;;;;;484126;246;1066;-74
2022/08/23 08:56:31;;;;;;;;;;;22.00;49.70;;;;;;483998;246;1098;-74
2022/08/23 08:58:32;;;;;;;;;;;22.00;49.70;;;;;;484163;246;1129;-74
2022/08/23 09:00:34;;;;;;;;;;;22.00;49.70;;;;;;484037;246;1147;-74
2022/08/23 09:02:35;;;;;;;;;;;22.00;49.60;;;;;;484162;246;2144;-74
2022/08/23 09:04:37;;;;;;;;;;;22.10;49.60;;;;;;484163;246;1036;-74
2022/08/23 09:06:38;;;;;;;;;;;22.10;49.60;;;;;;483982;246;1245;-74
2022/08/23 09:08:39;;;;;;;;;;;22.00;49.70;;;;;;484067;246;1077;-74
2022/08/23 09:10:41;;;;;;;;;;;22.00;49.80;;;;;;484095;246;1145;-74
2022/08/23 09:12:42;;;;;;;;;;;22.00;49.70;;;;;;483998;246;1119;-74
2022/08/23 09:14:44;;;;;;;;;;;22.10;49.50;;;;;;484084;246;1280;-74
2022/08/23 09:16:45;;;;;;;;;;;22.10;49.50;;;;;;484233;246;1147;-74
2022/08/23 09:18:46;;;;;;;;;;;22.20;49.40;;;;;;484034;246;1157;-74
2022/08/23 09:20:48;;;;;;;;;;;22.20;49.20;;;;;;484097;246;1099;-74
2022/08/23 09:22:50;;;;;;;;;;;22.20;49.20;;;;;;484013;246;2112;-74
2022/08/23 09:24:50;;;;;;;;;;;22.30;49.00;;;;;;484085;246;1269;-74
2022/08/23 09:26:52;;;;;;;;;;;22.20;49.00;;;;;;484190;245;1083;-74
2022/08/23 09:28:53;;;;;;;;;;;22.20;49.10;;;;;;484092;246;1277;-75
2022/08/23 09:30:55;;;;;;;;;;;22.20;49.00;;;;;;484078;246;1231;-74
2022/08/23 09:32:56;;;;;;;;;;;22.20;49.10;;;;;;483969;246;1105;-74
2022/08/23 09:34:59;;;;;;;;;;;22.10;49.10;;;;;;484034;242;1201;-74
2022/08/23 09:36:59;;;;;;;;;;;22.00;49.20;;;;;;484002;246;1530;-74
2022/08/23 09:39:00;;;;;;;;;;;22.00;49.30;;;;;;484285;245;1117;-74
2022/08/23 09:41:01;;;;;;;;;;;22.10;49.40;;;;;;484270;245;1052;-74
2022/08/23 09:43:03;;;;;;;;;;;22.10;49.10;;;;;;484108;246;2136;-74
2022/08/23 09:45:04;;;;;;;;;;;22.10;49.20;;;;;;484153;246;1505;-74
2022/08/23 09:47:06;;;;;;;;;;;22.10;49.20;;;;;;483895;246;1086;-74
2022/08/23 09:49:07;;;;;;;;;;;22.00;49.40;;;;;;484086;246;1130;-74
2022/08/23 09:51:09;;;;;;;;;;;22.00;49.50;;;;;;483960;246;1164;-74
2022/08/23 09:53:10;;;;;;;;;;;22.00;49.50;;;;;;484034;246;1164;-74
2022/08/23 09:55:11;;;;;;;;;;;21.90;49.70;;;;;;483998;246;1175;-74
2022/08/23 09:57:13;;;;;;;;;;;21.90;49.70;;;;;;484162;246;1159;-74
2022/08/23 09:59:14;;;;;;;;;;;21.90;49.90;;;;;;484013;246;1180;-74
2022/08/23 10:01:15;;;;;;;;;;;21.90;49.80;;;;;;484070;246;2152;-75
2022/08/23 10:03:17;;;;;;;;;;;22.00;49.70;;;;;;484179;245;1352;-74
2022/08/23 10:05:18;;;;;;;;;;;22.00;49.70;;;;;;484094;246;1187;-74
2022/08/23 10:07:19;;;;;;;;;;;21.90;49.70;;;;;;484164;246;1198;-74
2022/08/23 10:09:21;;;;;;;;;;;21.90;49.70;;;;;;484134;246;1128;-74
2022/08/23 10:11:22;;;;;;;;;;;22.00;49.70;;;;;;484148;246;1130;-74
2022/08/23 10:13:23;;;;;;;;;;;22.10;49.40;;;;;;484175;245;1081;-74
2022/08/23 10:15:25;;;;;;;;;;;22.10;49.20;;;;;;483963;246;1130;-74
2022/08/23 10:17:26;;;;;;;;;;;22.10;49.30;;;;;;483976;246;1172;-74
2022/08/23 10:19:28;;;;;;;;;;;22.00;49.40;;;;;;484025;246;1020;-74
2022/08/23 10:21:29;;;;;;;;;;;22.00;49.60;;;;;;484028;246;2157;-74
2022/08/23 10:23:32;;;;;;;;;;;22.00;49.60;;;;;;484148;246;1053;-74
2022/08/23 10:25:32;;;;;;;;;;;22.00;49.60;;;;;;484024;246;1426;-74
2022/08/23 10:29:52;;;;;;;;;;;22.00;49.50;;;;;;484018;246;1052;-74
2022/08/23 10:31:54;;;;;;;;;;;22.00;49.60;;;;;;484160;246;1194;-74
2022/08/23 10:33:55;;;;;;;;;;;22.10;49.40;;;;;;484123;246;1062;-74
2022/08/23 10:35:56;;;;;;;;;;;22.10;49.30;;;;;;484210;246;1134;-74
2022/08/23 10:37:57;;;;;;;;;;;22.10;49.20;;;;;;484181;246;1081;-74
2022/08/23 10:39:59;;;;;;;;;;;22.00;49.20;;;;;;484076;246;1109;-74
2022/08/23 10:42:00;;;;;;;;;;;22.00;49.20;;;;;;483945;242;2192;-74
2022/08/23 10:44:01;;;;;;;;;;;22.00;49.30;;;;;;484078;246;1188;-74
2022/08/23 10:46:03;;;;;;;;;;;22.00;49.40;;;;;;484235;246;1110;-74
2022/08/23 10:48:04;;;;;;;;;;;22.10;49.20;;;;;;484092;246;1166;-74
2022/08/23 10:50:05;;;;;;;;;;;22.00;49.30;;;;;;484108;246;1160;-74
2022/08/23 10:52:07;;;;;;;;;;;22.00;49.40;;;;;;484035;246;1161;-74
2022/08/23 10:54:08;;;;;;;;;;;22.10;49.10;;;;;;483982;246;1374;-74
2022/08/23 10:56:15;;;;;;;;;;;22.10;49.20;;;;;;484131;246;1178;-74
2022/08/23 10:58:11;;;;;;;;;;;22.10;49.20;;;;;;483562;246;1657;-74
2022/08/23 11:00:12;;;;;;;;;;;22.10;49.10;;;;;;484073;246;1105;-74
2022/08/23 11:02:13;;;;;;;;;;;22.20;49.00;;;;;;484066;246;2160;-74
2022/08/23 11:04:15;;;;;;;;;;;22.10;49.10;;;;;;484094;246;1106;-74
2022/08/23 11:06:16;;;;;;;;;;;22.10;49.00;;;;;;484021;246;1207;-74
2022/08/23 11:08:17;;;;;;;;;;;22.10;49.10;;;;;;484045;246;1116;-75
2022/08/23 11:10:19;;;;;;;;;;;22.10;49.20;;;;;;483798;246;1137;-74
2022/08/23 11:12:20;;;;;;;;;;;22.10;49.20;;;;;;483937;246;1215;-74
2022/08/23 11:14:22;;;;;;;;;;;22.10;49.20;;;;;;484005;246;1164;-74
2022/08/23 11:16:24;;;;;;;;;;;22.10;49.30;;;;;;484127;246;1241;-74
2022/08/23 11:18:24;;;;;;;;;;;22.10;49.10;;;;;;484120;246;1402;-74
2022/08/23 11:20:26;;;;;;;;;;;22.10;49.20;;;;;;483970;246;1137;-74
2022/08/23 11:22:27;;;;;;;;;;;22.20;48.90;;;;;;484093;246;2199;-74
2022/08/23 11:24:28;;;;;;;;;;;22.20;48.90;;;;;;483984;246;1180;-74
2022/08/23 11:26:34;;;;;;;;;;;22.10;48.90;;;;;;483974;246;1198;-74
2022/08/23 11:28:31;;;;;;;;;;;22.10;48.70;;;;;;483640;246;1430;-74
2022/08/23 11:30:32;;;;;;;;;;;22.00;48.90;;;;;;483794;246;1082;-74
2022/08/23 11:32:34;;;;;;;;;;;22.00;49.00;;;;;;483934;246;1208;-74
2022/08/23 11:34:35;;;;;;;;;;;22.00;48.80;;;;;;484139;245;1169;-74
2022/08/23 11:36:36;;;;;;;;;;;22.10;48.80;;;;;;483922;246;1095;-74
2022/08/23 11:38:38;;;;;;;;;;;22.10;48.70;;;;;;483961;246;1120;-74
2022/08/23 11:40:39;;;;;;;;;;;22.10;48.80;;;;;;484055;246;1115;-74
2022/08/23 11:42:40;;;;;;;;;;;22.00;49.00;;;;;;483979;246;2173;-74
2022/08/23 11:44:41;;;;;;;;;;;22.00;49.00;;;;;;483996;246;1106;-74
2022/08/23 11:46:45;;;;;;;;;;;22.10;48.90;;;;;;483928;246;1491;-75
2022/08/23 11:48:44;;;;;;;;;;;22.10;48.80;;;;;;483692;246;1924;-74
2022/08/23 11:50:45;;;;;;;;;;;22.00;48.90;;;;;;484049;246;1114;-74
2022/08/23 11:52:47;;;;;;;;;;;22.00;49.10;;;;;;483934;246;1129;-74
2022/08/23 11:54:49;;;;;;;;;;;22.00;49.10;;;;;;483907;246;1099;-74
2022/08/23 11:56:50;;;;;;;;;;;22.10;48.80;;;;;;484058;246;1171;-74
2022/08/23 11:58:51;;;;;;;;;;;22.10;48.80;;;;;;484031;246;1069;-74
2022/08/23 12:00:52;;;;;;;;;;;22.10;48.80;;;;;;483930;246;1109;-74
2022/08/23 12:03:00;;;;;;;;;;;22.10;48.80;;;;;;484117;246;2184;-74
2022/08/23 12:04:55;;;;;;;;;;;22.10;48.70;;;;;;483539;246;1450;-74
2022/08/23 12:07:01;;;;;;;;;;;22.10;48.50;;;;;;483738;246;1130;-74